createdAt,value
2023-04-06T00:01:09.615Z,12.15
2023-04-06T00:03:36.817Z,13.05
2023-04-06T00:06:04.639Z,12.52
2023-04-06T00:08:31.683Z,13.95
2023-04-06T00:10:58.783Z,12.57
2023-04-06T00:13:26.349Z,12.40
2023-04-06T00:15:53.711Z,18.15
2023-04-06T00:18:20.768Z,11.95
2023-04-06T00:20:47.762Z,13.70
2023-04-06T00:23:15.122Z,11.82
2023-04-06T00:25:42.432Z,11.73
2023-04-06T00:28:09.603Z,12.80
2023-04-06T00:30:36.910Z,12.80
2023-04-06T00:33:04.366Z,13.13
2023-04-06T00:35:31.759Z,13.55
2023-04-06T00:37:59.084Z,13.52
2023-04-06T00:40:28.784Z,19.95
2023-04-06T00:42:56.380Z,10.75
2023-04-06T00:45:23.498Z,11.18
2023-04-06T00:47:50.625Z,11.55
2023-04-06T00:50:18.612Z,9.95
2023-04-06T00:52:45.803Z,10.30
2023-04-06T00:55:13.461Z,9.80
2023-04-06T00:57:43.182Z,11.18
2023-04-06T01:00:11.136Z,11.43
2023-04-06T01:02:38.905Z,9.70
2023-04-06T01:05:06.825Z,13.18
2023-04-06T01:07:45.026Z,13.45
2023-04-06T01:10:29.278Z,11.88
2023-04-06T01:13:02.940Z,12.60
2023-04-06T01:15:53.088Z,13.10
2023-04-06T01:18:39.031Z,10.88
2023-04-06T01:21:26.885Z,12.88
2023-04-06T01:24:07.232Z,13.20
2023-04-06T01:26:46.762Z,10.55
2023-04-06T01:29:13.931Z,12.70
2023-04-06T01:31:41.365Z,11.63
2023-04-06T01:34:08.528Z,15.10
2023-04-06T01:36:35.608Z,14.00
2023-04-06T01:39:17.695Z,14.52
2023-04-06T01:41:44.918Z,11.70
2023-04-06T01:44:12.321Z,12.90
2023-04-06T01:46:40.929Z,15.77
2023-04-06T01:49:09.247Z,15.05
2023-04-06T01:51:40.465Z,12.27
2023-04-06T01:54:11.484Z,14.40
2023-04-06T01:57:01.688Z,13.90
2023-04-06T01:59:35.509Z,13.45
2023-04-06T02:02:07.930Z,12.25
2023-04-06T02:04:36.340Z,12.48
2023-04-06T02:07:11.284Z,14.75
2023-04-06T02:09:38.860Z,13.50
2023-04-06T02:12:09.956Z,12.73
2023-04-06T02:14:37.006Z,11.20
2023-04-06T02:17:05.468Z,12.40
2023-04-06T02:19:32.498Z,13.45
2023-04-06T02:21:59.593Z,12.07
2023-04-06T02:24:26.511Z,11.63
2023-04-06T02:26:53.670Z,9.73
2023-04-06T02:29:21.423Z,10.38
2023-04-06T02:31:49.291Z,9.65
2023-04-06T02:34:18.744Z,12.23
2023-04-06T02:36:50.187Z,12.50
2023-04-06T02:39:18.601Z,10.10
2023-04-06T02:41:45.672Z,12.68
2023-04-06T02:44:16.233Z,10.18
2023-04-06T02:46:44.964Z,11.93
2023-04-06T02:49:12.065Z,9.35
2023-04-06T02:51:39.168Z,9.52
2023-04-06T02:54:19.089Z,11.05
2023-04-06T02:56:46.474Z,10.30
2023-04-06T02:59:14.469Z,13.57
2023-04-06T03:01:47.553Z,8.43
2023-04-06T03:04:14.697Z,9.73
2023-04-06T03:06:41.673Z,10.50
2023-04-06T03:09:20.812Z,9.98
2023-04-06T03:11:48.126Z,7.57
2023-04-06T03:14:18.329Z,10.05
2023-04-06T03:16:45.394Z,8.90
2023-04-06T03:19:16.284Z,7.50
2023-04-06T03:21:43.970Z,8.13
2023-04-06T03:24:11.204Z,8.43
2023-04-06T03:26:38.278Z,8.77
2023-04-06T03:29:07.953Z,13.95
2023-04-06T03:31:35.927Z,9.43
2023-04-06T03:34:11.096Z,13.48
2023-04-06T03:36:38.170Z,12.02
2023-04-06T03:39:06.166Z,8.07
2023-04-06T03:41:36.260Z,11.07
2023-04-06T03:44:10.672Z,9.75
2023-04-06T03:46:38.341Z,10.32
2023-04-06T03:49:06.091Z,9.18
2023-04-06T03:51:33.419Z,10.80
2023-04-06T03:54:00.470Z,7.15
2023-04-06T03:56:27.774Z,13.75
2023-04-06T03:58:55.310Z,10.32
2023-04-06T04:01:22.697Z,8.80
2023-04-06T04:03:51.793Z,8.48
2023-04-06T04:06:19.232Z,10.20
2023-04-06T04:08:46.798Z,9.85
2023-04-06T04:11:14.184Z,10.68
2023-04-06T04:13:41.323Z,10.65
2023-04-06T04:16:09.691Z,13.40
2023-04-06T04:18:37.558Z,8.65
2023-04-06T04:21:04.844Z,9.10
2023-04-06T04:23:32.014Z,8.00
2023-04-06T04:25:59.209Z,11.10
2023-04-06T04:28:26.104Z,8.55
2023-04-06T04:30:55.740Z,21.90
2023-04-06T04:33:24.241Z,10.77
2023-04-06T04:35:53.962Z,11.35
2023-04-06T04:38:23.681Z,11.10
2023-04-06T04:40:53.792Z,10.23
2023-04-06T04:43:21.889Z,12.82
2023-04-06T04:45:48.858Z,11.32
2023-04-06T04:48:35.245Z,9.85
2023-04-06T04:51:06.357Z,11.38
2023-04-06T04:53:47.349Z,12.38
2023-04-06T04:56:20.854Z,12.90
2023-04-06T04:58:51.801Z,8.40
2023-04-06T05:01:19.133Z,9.70
2023-04-06T05:03:47.297Z,13.48
2023-04-06T05:06:16.144Z,9.35
2023-04-06T05:08:44.169Z,11.40
2023-04-06T05:11:11.258Z,9.43
2023-04-06T05:13:43.559Z,10.93
2023-04-06T05:16:17.078Z,14.68
2023-04-06T05:18:44.812Z,11.65
2023-04-06T05:21:12.885Z,12.52
2023-04-06T05:24:09.447Z,11.88
2023-04-06T05:26:38.821Z,13.85
2023-04-06T05:29:13.188Z,12.52
2023-04-06T05:31:41.424Z,10.32
2023-04-06T05:34:10.697Z,13.70
2023-04-06T05:36:38.163Z,11.43
2023-04-06T05:39:14.370Z,10.47
2023-04-06T05:41:50.029Z,10.88
2023-04-06T05:44:24.391Z,13.40
2023-04-06T05:47:01.318Z,11.18
2023-04-06T05:49:28.505Z,13.13
2023-04-06T05:51:56.264Z,12.82
2023-04-06T05:54:23.636Z,9.57
2023-04-06T05:56:52.246Z,10.18
2023-04-06T05:59:19.588Z,10.57
2023-04-06T06:01:48.618Z,10.50
2023-04-06T06:04:16.466Z,15.05
2023-04-06T06:06:48.876Z,12.43
2023-04-06T06:09:24.233Z,9.85
2023-04-06T06:12:05.662Z,10.43
2023-04-06T06:14:32.807Z,9.35
2023-04-06T06:16:59.697Z,10.43
2023-04-06T06:19:27.884Z,9.95
2023-04-06T06:21:59.511Z,11.50
2023-04-06T06:24:26.714Z,20.30
2023-04-06T06:26:53.646Z,10.77
2023-04-06T06:29:24.881Z,11.25
2023-04-06T06:31:51.885Z,15.48
2023-04-06T06:34:18.934Z,9.60
2023-04-06T06:36:47.718Z,10.80
2023-04-06T06:39:16.464Z,9.93
2023-04-06T06:41:43.529Z,16.13
2023-04-06T06:44:10.878Z,10.60
2023-04-06T06:46:38.702Z,10.55
2023-04-06T06:49:06.806Z,12.70
2023-04-06T06:51:33.842Z,11.25
2023-04-06T06:54:02.082Z,9.82
2023-04-06T06:56:29.017Z,13.90
2023-04-06T06:58:56.378Z,9.40
2023-04-06T07:01:23.853Z,8.73
2023-04-06T07:03:51.022Z,9.05
2023-04-06T07:06:18.033Z,10.13
2023-04-06T07:08:44.986Z,11.88
2023-04-06T07:11:11.931Z,16.00
2023-04-06T07:13:38.909Z,13.73
2023-04-06T07:16:06.296Z,13.25
2023-04-06T07:18:36.053Z,9.52
2023-04-06T07:21:05.002Z,14.18
2023-04-06T07:26:12.836Z,9.95
2023-04-06T07:28:39.839Z,7.80
2023-04-06T07:31:06.926Z,5.75
2023-04-06T07:33:34.589Z,9.23
2023-04-06T07:36:02.641Z,7.00
2023-04-06T07:38:29.738Z,5.40
2023-04-06T07:40:57.020Z,5.00
2023-04-06T07:43:24.939Z,7.50
2023-04-06T07:45:52.877Z,8.13
2023-04-06T07:48:20.532Z,7.30
2023-04-06T07:53:28.328Z,7.30
2023-04-06T07:55:56.683Z,6.32
2023-04-06T07:58:23.613Z,7.15
2023-04-06T08:00:50.843Z,5.00
2023-04-06T08:03:18.149Z,8.02
2023-04-06T08:05:45.279Z,4.95
2023-04-06T08:08:12.319Z,5.45
2023-04-06T08:10:39.158Z,5.55
2023-04-06T08:13:06.463Z,6.07
2023-04-06T08:15:33.469Z,3.45
2023-04-06T08:18:00.892Z,3.22
2023-04-06T08:20:27.963Z,5.47
2023-04-06T08:22:55.219Z,3.72
2023-04-06T08:25:22.237Z,6.25
2023-04-06T08:27:49.119Z,5.03
2023-04-06T08:30:16.759Z,6.82
2023-04-06T08:32:43.717Z,4.95
2023-04-06T08:35:10.770Z,4.03
2023-04-06T08:37:37.692Z,6.05
2023-04-06T08:40:05.554Z,3.22
2023-04-06T08:42:44.687Z,6.30
2023-04-06T08:45:11.820Z,3.15
2023-04-06T08:47:38.863Z,4.18
2023-04-06T08:50:07.026Z,3.42
2023-04-06T08:52:37.211Z,4.25
2023-04-06T08:55:04.912Z,2.95
2023-04-06T08:57:33.060Z,3.60
2023-04-06T09:00:02.072Z,4.05
2023-04-06T09:02:29.455Z,6.40
2023-04-06T09:04:56.652Z,5.80
2023-04-06T09:07:24.880Z,4.25
2023-04-06T09:09:52.726Z,2.90
2023-04-06T09:12:28.205Z,3.10
2023-04-06T09:14:56.955Z,3.33
2023-04-06T09:17:30.860Z,3.17
2023-04-06T09:19:58.235Z,3.25
2023-04-06T09:22:26.622Z,4.15
2023-04-06T09:24:55.552Z,6.30
2023-04-06T09:27:37.390Z,5.25
2023-04-06T09:30:17.786Z,4.15
2023-04-06T09:32:50.974Z,3.05
2023-04-06T09:35:21.015Z,2.60
2023-04-06T09:37:50.467Z,2.72
2023-04-06T09:40:22.200Z,4.97
2023-04-06T09:42:52.706Z,2.88
2023-04-06T09:45:19.908Z,3.63
2023-04-06T09:47:47.755Z,3.90
2023-04-06T09:50:17.286Z,3.05
2023-04-06T09:52:50.924Z,2.28
2023-04-06T09:55:34.842Z,5.53
2023-04-06T09:58:15.101Z,2.50
2023-04-06T10:00:50.176Z,2.55
2023-04-06T10:03:43.106Z,2.45
2023-04-06T10:06:14.890Z,2.03
2023-04-06T10:08:43.985Z,3.03
2023-04-06T10:11:14.217Z,5.45
2023-04-06T10:13:41.086Z,2.53
2023-04-06T10:16:09.504Z,4.57
2023-04-06T10:18:37.638Z,5.32
2023-04-06T10:21:15.969Z,2.38
2023-04-06T10:23:49.286Z,2.40
2023-04-06T10:26:21.477Z,5.07
2023-04-06T10:28:50.630Z,2.00
2023-04-06T10:31:29.450Z,4.30
2023-04-06T10:34:01.772Z,2.60
2023-04-06T10:36:37.960Z,3.28
2023-04-06T10:39:07.465Z,2.95
2023-04-06T10:41:44.069Z,4.43
2023-04-06T10:44:23.445Z,3.17
2023-04-06T10:47:01.233Z,2.22
2023-04-06T10:49:28.397Z,1.77
2023-04-06T10:51:57.213Z,2.72
2023-04-06T10:54:27.238Z,2.05
2023-04-06T10:56:54.338Z,3.58
2023-04-06T10:59:23.378Z,5.18
2023-04-06T11:01:50.695Z,2.10
2023-04-06T11:04:19.447Z,2.50
2023-04-06T11:06:51.213Z,2.17
2023-04-06T11:09:29.820Z,2.75
2023-04-06T11:11:57.778Z,3.40
2023-04-06T11:14:24.781Z,4.57
2023-04-06T11:16:52.019Z,2.10
2023-04-06T11:19:19.470Z,2.17
2023-04-06T11:21:48.786Z,5.05
2023-04-06T11:24:25.983Z,2.47
2023-04-06T11:26:57.314Z,2.60
2023-04-06T11:29:27.676Z,3.13
2023-04-06T11:32:00.932Z,4.53
2023-04-06T11:34:31.241Z,2.25
2023-04-06T11:37:07.364Z,3.97
2023-04-06T11:39:41.639Z,2.47
2023-04-06T11:42:09.391Z,2.38
2023-04-06T11:44:43.576Z,3.42
2023-04-06T11:47:11.763Z,2.97
2023-04-06T11:49:42.014Z,2.15
2023-04-06T11:52:24.918Z,2.45
2023-04-06T11:54:54.271Z,1.88
2023-04-06T11:57:26.418Z,2.38
2023-04-06T11:59:54.132Z,3.05
2023-04-06T12:02:21.195Z,2.75
2023-04-06T12:04:48.469Z,2.50
2023-04-06T12:07:16.096Z,2.10
2023-04-06T12:09:44.225Z,4.15
2023-04-06T12:12:11.261Z,8.93
2023-04-06T12:14:38.366Z,2.00
2023-04-06T12:17:05.348Z,2.78
2023-04-06T12:19:32.705Z,4.00
2023-04-06T12:21:59.905Z,3.25
2023-04-06T12:24:27.065Z,2.60
2023-04-06T12:27:06.453Z,2.20
2023-04-06T12:29:36.923Z,5.20
2023-04-06T12:32:03.998Z,2.22
2023-04-06T12:34:31.198Z,4.93
2023-04-06T12:36:58.424Z,2.25
2023-04-06T12:39:26.378Z,2.08
2023-04-06T12:41:54.274Z,3.35
2023-04-06T12:44:21.283Z,3.17
2023-04-06T12:46:48.352Z,3.15
2023-04-06T12:49:17.693Z,2.33
2023-04-06T12:51:44.763Z,3.47
2023-04-06T12:54:12.957Z,3.92
2023-04-06T12:56:40.468Z,3.13
2023-04-06T12:59:07.576Z,2.22
2023-04-06T13:01:34.858Z,2.90
2023-04-06T13:04:02.467Z,2.17
2023-04-06T13:06:30.096Z,2.08
2023-04-06T13:08:57.346Z,3.25
2023-04-06T13:11:28.219Z,3.15
2023-04-06T13:13:55.952Z,2.40
2023-04-06T13:16:23.437Z,2.35
2023-04-06T13:18:51.048Z,1.73
2023-04-06T13:21:18.107Z,3.03
2023-04-06T13:23:45.432Z,2.65
2023-04-06T13:26:14.267Z,2.95
2023-04-06T13:28:42.010Z,3.78
2023-04-06T13:31:10.708Z,3.58
2023-04-06T13:33:38.434Z,21.27
2023-04-06T13:36:08.552Z,13.13
2023-04-06T13:38:35.822Z,6.55
2023-04-06T13:41:02.940Z,4.20
2023-04-06T13:43:30.233Z,4.45
2023-04-06T13:46:00.896Z,3.40
2023-04-06T13:48:28.243Z,4.63
2023-04-06T13:50:55.299Z,5.57
2023-04-06T13:53:22.330Z,3.85
2023-04-06T13:55:56.424Z,4.85
2023-04-06T13:58:24.335Z,3.40
2023-04-06T14:00:52.179Z,5.50
2023-04-06T14:03:19.987Z,2.42
2023-04-06T14:05:47.362Z,3.55
2023-04-06T14:08:14.422Z,3.72
2023-04-06T14:10:43.162Z,3.45
2023-04-06T14:13:10.448Z,4.57
2023-04-06T14:15:37.518Z,2.53
2023-04-06T14:18:04.983Z,2.72
2023-04-06T14:20:35.405Z,2.60
2023-04-06T14:23:03.281Z,1.35
2023-04-06T14:25:35.693Z,3.03
2023-04-06T14:28:03.125Z,2.60
2023-04-06T14:30:32.022Z,2.72
2023-04-06T14:32:59.343Z,3.08
2023-04-06T14:35:29.085Z,2.97
2023-04-06T14:37:59.507Z,4.30
2023-04-06T14:40:26.598Z,3.28
2023-04-06T14:42:53.650Z,2.50
2023-04-06T14:45:22.558Z,4.40
2023-04-06T14:47:49.878Z,2.42
2023-04-06T14:50:17.098Z,2.75
2023-04-06T14:52:44.193Z,2.65
2023-04-06T14:55:11.272Z,1.92
2023-04-06T14:57:38.992Z,1.70
2023-04-06T15:00:08.854Z,2.38
2023-04-06T15:02:36.401Z,4.68
2023-04-06T15:05:04.378Z,3.60
2023-04-06T15:07:31.412Z,4.78
2023-04-06T15:09:58.428Z,2.70
2023-04-06T15:12:25.796Z,4.15
2023-04-06T15:14:52.796Z,1.50
2023-04-06T15:17:19.894Z,4.40
2023-04-06T15:19:46.878Z,3.58
2023-04-06T15:22:14.124Z,2.03
2023-04-06T15:24:41.100Z,2.40
2023-04-06T15:27:07.910Z,2.67
2023-04-06T15:29:35.174Z,1.25
2023-04-06T15:32:02.722Z,4.10
2023-04-06T15:34:33.595Z,1.65
2023-04-06T15:37:04.848Z,4.38
2023-04-06T15:39:33.178Z,3.47
2023-04-06T15:42:01.150Z,2.72
2023-04-06T15:44:28.123Z,3.50
2023-04-06T15:46:55.720Z,2.13
2023-04-06T15:49:22.699Z,5.40
2023-04-06T15:51:51.365Z,2.65
2023-04-06T15:54:20.035Z,2.67
2023-04-06T15:56:48.424Z,1.77
2023-04-06T15:59:16.756Z,3.17
2023-04-06T16:01:44.233Z,1.80
2023-04-06T16:04:12.470Z,2.47
2023-04-06T16:06:39.750Z,2.88
2023-04-06T16:09:06.975Z,2.88
2023-04-06T16:11:34.158Z,2.20
2023-04-06T16:14:01.293Z,5.75
2023-04-06T16:16:28.519Z,3.38
2023-04-06T16:18:55.697Z,3.08
2023-04-06T16:21:22.717Z,3.47
2023-04-06T16:23:49.690Z,4.20
2023-04-06T16:26:21.632Z,3.60
2023-04-06T16:28:49.244Z,3.58
2023-04-06T16:31:25.054Z,4.50
2023-04-06T16:33:57.625Z,4.45
2023-04-06T16:36:30.085Z,2.47
2023-04-06T16:38:58.512Z,2.92
2023-04-06T16:41:27.434Z,3.47
2023-04-06T16:43:57.080Z,2.25
2023-04-06T16:46:35.967Z,3.40
2023-04-06T16:49:05.090Z,23.20
2023-04-06T16:51:32.748Z,18.95
2023-04-06T16:53:59.829Z,6.68
2023-04-06T16:56:27.270Z,3.10
2023-04-06T16:58:54.307Z,3.75
2023-04-06T17:01:27.092Z,4.32
2023-04-06T17:03:56.077Z,2.88
2023-04-06T17:06:23.316Z,3.13
2023-04-06T17:08:51.176Z,5.43
2023-04-06T17:11:23.411Z,3.72
2023-04-06T17:13:52.660Z,3.70
2023-04-06T17:16:20.905Z,3.05
2023-04-06T17:18:48.116Z,4.13
2023-04-06T17:21:16.858Z,4.63
2023-04-06T17:23:44.651Z,2.50
2023-04-06T17:26:11.966Z,5.50
2023-04-06T17:28:39.289Z,5.28
2023-04-06T17:31:11.493Z,3.58
2023-04-06T17:33:40.055Z,4.55
2023-04-06T17:36:12.450Z,6.07
2023-04-06T17:38:43.730Z,4.15
2023-04-06T17:41:12.662Z,3.13
2023-04-06T17:43:39.930Z,3.90
2023-04-06T17:46:07.016Z,4.40
2023-04-06T17:48:34.382Z,3.50
2023-04-06T17:51:01.407Z,8.93
2023-04-06T17:53:31.932Z,5.25
2023-04-06T17:56:03.982Z,6.75
2023-04-06T17:58:31.163Z,4.60
2023-04-06T18:00:58.434Z,7.80
2023-04-06T18:03:25.567Z,12.07
2023-04-06T18:05:52.705Z,8.60
2023-04-06T18:08:19.833Z,7.05
2023-04-06T18:10:48.260Z,7.47
2023-04-06T18:13:15.679Z,9.93
2023-04-06T18:15:42.804Z,7.55
2023-04-06T18:18:09.856Z,9.32
2023-04-06T18:20:41.506Z,22.27
2023-04-06T18:23:08.477Z,11.15
2023-04-06T18:25:41.810Z,7.00
2023-04-06T18:28:09.737Z,11.05
2023-04-06T18:30:37.056Z,10.32
2023-04-06T18:33:04.717Z,6.95
2023-04-06T18:35:31.785Z,9.35
2023-04-06T18:37:58.929Z,7.25
2023-04-06T18:40:37.948Z,8.85
2023-04-06T18:43:08.065Z,7.63
2023-04-06T18:45:38.797Z,8.38
2023-04-06T18:48:06.801Z,11.68
2023-04-06T18:50:34.150Z,8.73
2023-04-06T18:53:01.229Z,9.18
2023-04-06T18:55:28.640Z,7.68
2023-04-06T18:57:55.812Z,10.60
2023-04-06T19:00:22.817Z,8.40
2023-04-06T19:02:49.979Z,8.88
2023-04-06T19:05:17.337Z,10.85
2023-04-06T19:07:49.607Z,10.88
2023-04-06T19:10:16.576Z,12.75
2023-04-06T19:12:43.535Z,7.97
2023-04-06T19:15:11.624Z,8.63
2023-04-06T19:17:38.810Z,11.32
2023-04-06T19:20:07.139Z,8.13
2023-04-06T19:22:37.984Z,8.65
2023-04-06T19:25:06.694Z,12.93
2023-04-06T19:27:34.022Z,12.38
2023-04-06T19:30:01.247Z,10.65
2023-04-06T19:32:30.122Z,12.52
2023-04-06T19:34:59.601Z,13.13
2023-04-06T19:37:26.873Z,11.77
2023-04-06T19:39:54.060Z,10.35
2023-04-06T19:42:21.748Z,11.43
2023-04-06T19:44:48.987Z,9.57
2023-04-06T19:47:16.344Z,8.65
2023-04-06T19:49:43.641Z,14.32
2023-04-06T19:52:11.726Z,9.82
2023-04-06T19:54:40.005Z,11.32
2023-04-06T19:57:07.108Z,15.68
2023-04-06T19:59:37.284Z,13.55
2023-04-06T20:02:04.511Z,12.68
2023-04-06T20:04:31.586Z,11.48
2023-04-06T20:06:58.750Z,10.48
2023-04-06T20:09:25.676Z,14.25
2023-04-06T20:11:54.242Z,15.80
2023-04-06T20:14:22.813Z,19.10
2023-04-06T20:16:50.866Z,17.58
2023-04-06T20:19:18.106Z,17.88
2023-04-06T20:21:45.258Z,19.67
2023-04-06T20:24:12.424Z,18.23
2023-04-06T20:26:39.556Z,18.77
2023-04-06T20:29:06.824Z,21.70
2023-04-06T20:31:34.125Z,18.13
2023-04-06T20:34:01.705Z,17.60
2023-04-06T20:36:32.527Z,18.48
2023-04-06T20:38:59.484Z,15.45
2023-04-06T20:41:26.577Z,18.73
2023-04-06T20:43:53.483Z,16.20
2023-04-06T20:46:20.516Z,17.98
2023-04-06T20:48:47.622Z,19.50
2023-04-06T20:51:23.894Z,19.92
2023-04-06T20:53:52.693Z,15.90
2023-04-06T20:56:21.992Z,16.80
2023-04-06T20:58:49.414Z,20.40
2023-04-06T21:01:17.937Z,16.17
2023-04-06T21:03:45.743Z,18.00
2023-04-06T21:06:12.960Z,15.73
2023-04-06T21:08:39.901Z,19.40
2023-04-06T21:11:07.093Z,16.17
2023-04-06T21:13:35.584Z,18.27
2023-04-06T21:16:03.275Z,18.17
2023-04-06T21:18:31.613Z,17.92
2023-04-06T21:20:58.936Z,14.50
2023-04-06T21:23:26.044Z,16.77
2023-04-06T21:25:56.968Z,18.63
2023-04-06T21:28:25.587Z,17.65
2023-04-06T21:30:56.343Z,16.13
2023-04-06T21:33:23.642Z,15.85
2023-04-06T21:35:50.699Z,15.13
2023-04-06T21:38:17.718Z,21.10
2023-04-06T21:40:44.764Z,13.90
2023-04-06T21:43:11.921Z,15.68
2023-04-06T21:45:40.134Z,15.80
2023-04-06T21:48:07.351Z,16.48
2023-04-06T21:50:39.319Z,17.63
2023-04-06T21:53:06.330Z,15.70
2023-04-06T21:55:33.336Z,14.25
2023-04-06T21:58:00.390Z,14.93
2023-04-06T22:00:27.457Z,13.80
2023-04-06T22:02:54.727Z,15.00
2023-04-06T22:05:21.780Z,14.73
2023-04-06T22:07:48.803Z,21.08
2023-04-06T22:10:15.838Z,14.82
2023-04-06T22:12:42.926Z,20.30
2023-04-06T22:15:13.035Z,15.70
2023-04-06T22:17:40.157Z,16.35
2023-04-06T22:20:07.626Z,14.10
2023-04-06T22:22:34.755Z,15.40
2023-04-06T22:25:01.780Z,17.25
2023-04-06T22:27:28.739Z,15.85
2023-04-06T22:29:56.236Z,15.63
2023-04-06T22:32:23.427Z,18.02
2023-04-06T22:34:50.491Z,12.82
2023-04-06T22:37:17.414Z,15.45
2023-04-06T22:39:44.975Z,16.52
2023-04-06T22:42:11.915Z,15.27
2023-04-06T22:44:39.016Z,17.25
2023-04-06T22:47:05.945Z,14.25
2023-04-06T22:49:33.162Z,18.08
2023-04-06T22:51:59.922Z,16.98
2023-04-06T22:54:26.871Z,17.67
2023-04-06T22:56:53.896Z,15.15
2023-04-06T22:59:21.046Z,13.57
2023-04-06T23:01:48.133Z,14.30
2023-04-06T23:04:16.381Z,15.02
2023-04-06T23:06:44.274Z,17.88
2023-04-06T23:09:11.386Z,16.42
2023-04-06T23:11:38.560Z,14.95
2023-04-06T23:14:05.584Z,13.52
2023-04-06T23:16:32.807Z,15.43
2023-04-06T23:18:59.755Z,14.95
2023-04-06T23:21:26.687Z,17.23
2023-04-06T23:23:53.699Z,18.45
2023-04-06T23:26:21.858Z,17.77
2023-04-06T23:28:49.084Z,22.02
2023-04-06T23:31:16.243Z,16.58
2023-04-06T23:33:43.642Z,16.67
2023-04-06T23:36:11.134Z,17.77
2023-04-06T23:38:38.432Z,16.95
2023-04-06T23:41:05.629Z,14.38
2023-04-06T23:43:32.609Z,18.13
2023-04-06T23:45:59.713Z,16.58
2023-04-06T23:48:26.716Z,16.13
2023-04-06T23:50:53.655Z,19.00
2023-04-06T23:53:20.578Z,17.77
2023-04-06T23:55:47.500Z,17.85
2023-04-06T23:58:14.522Z,16.48
